Terminal Aerodrome Forecast
Issued by NWS Pocatello, ID

Home | Current Version | Previous Version | Text Only | Print | Product List | Glossary On
Versions: 1 2 3 4 5 6 7 8 9 10 11 12 13 14 15 16 17
000
FTUS45 KPIH 160100 AAA
TAFIDA
TAF AMD
KIDA 160101Z 1601/1624 35022G30KT 5SM BLDU VCSH SCT040 BKN070
     FM160300 30015G23KT P6SM FEW070 SCT200
     FM160600 22008KT P6SM BKN150
     FM161900 22012G20KT P6SM BKN120=

USA.gov is the U.S. government's official web portal to all federal, state and local government web resources and services.